Time;durP1;ratioP1;P1;durP2;ratioP2;P2;SDS_P1;SDS_P2;PMS_P1;PMS_P2;Temp;Humidity;BMP_temperature;BMP_pressure;BME280_temperature;BME280_humidity;BME280_pressure;Samples;Min_cycle;Max_cycle;Signal;HPM_P1;HPM_P2
2024/01/27 00:00:14;;;;;;;3.53;2.47;;;;;;;6.14;60.67;97795.38;5026078;28;20206;-67
2024/01/27 00:02:39;;;;;;;3.30;2.23;;;;;;;6.00;61.10;97814.53;5025597;28;20295;-68
2024/01/27 00:05:05;;;;;;;3.73;2.33;;;;;;;6.04;61.20;97818.88;5045448;28;20980;-68
2024/01/27 00:07:30;;;;;;;3.33;2.10;;;;;;;6.28;61.09;97817.91;5046189;28;20170;-67
2024/01/27 00:09:56;;;;;;;3.73;2.50;;;;;;;6.02;60.90;97833.63;5046212;28;20170;-67
2024/01/27 00:12:21;;;;;;;3.77;3.00;;;;;;;5.97;61.51;97830.19;5046050;28;20222;-67
2024/01/27 00:14:47;;;;;;;3.90;2.80;;;;;;;5.96;61.04;97824.09;5045943;28;20173;-69
2024/01/27 00:17:12;;;;;;;4.73;2.60;;;;;;;6.07;61.61;97814.53;5046790;28;20210;-71
2024/01/27 00:19:38;;;;;;;7.20;2.50;;;;;;;5.84;62.13;97813.69;5045964;28;20167;-68
2024/01/27 00:22:03;;;;;;;5.07;2.60;;;;;;;6.01;61.73;97808.47;5046948;28;20387;-67
2024/01/27 00:24:29;;;;;;;6.37;2.60;;;;;;;5.78;62.86;97816.28;5046954;28;20721;-68
2024/01/27 00:26:54;;;;;;;7.07;2.50;;;;;;;5.95;62.10;97814.53;5046144;28;20543;-68
2024/01/27 00:29:20;;;;;;;4.17;2.80;;;;;;;5.66;63.19;97818.03;5038588;28;20199;-68
2024/01/27 00:31:45;;;;;;;7.13;2.60;;;;;;;5.97;62.50;97828.44;5045278;28;20190;-68
2024/01/27 00:34:11;;;;;;;3.50;2.70;;;;;;;6.02;61.86;97818.00;5046289;28;20529;-68
2024/01/27 00:36:36;;;;;;;3.40;2.13;;;;;;;6.02;61.92;97831.03;5046437;28;20186;-67
2024/01/27 00:39:03;;;;;;;4.23;2.90;;;;;;;5.99;62.28;97826.69;5044954;28;20170;-67
2024/01/27 00:41:28;;;;;;;7.10;2.60;;;;;;;5.93;62.65;97834.50;5048299;28;20170;-68
2024/01/27 00:43:54;;;;;;;3.50;3.13;;;;;;;6.00;61.96;97830.16;5056313;28;20439;-67
2024/01/27 00:46:19;;;;;;;3.73;2.80;;;;;;;6.04;61.81;97829.28;5060245;28;20519;-68
2024/01/27 00:48:44;;;;;;;4.70;2.60;;;;;;;6.02;61.81;97821.47;5054524;28;20220;-67
2024/01/27 00:51:10;;;;;;;3.37;2.83;;;;;;;6.04;61.88;97816.25;5052553;28;20179;-68
2024/01/27 00:53:35;;;;;;;6.33;4.37;;;;;;;6.07;61.67;97818.84;5045960;28;20170;-68
2024/01/27 00:56:01;;;;;;;4.90;3.13;;;;;;;6.18;61.73;97811.00;5045507;28;20816;-68
2024/01/27 00:58:26;;;;;;;7.77;2.80;;;;;;;5.99;61.82;97813.66;5046835;28;20178;-68
2024/01/27 01:00:52;;;;;;;5.60;2.80;;;;;;;5.95;62.52;97819.75;5045751;28;20186;-69
2024/01/27 01:03:17;;;;;;;8.50;3.10;;;;;;;5.94;62.85;97823.25;5050112;28;20234;-68
2024/01/27 01:05:43;;;;;;;11.57;3.03;;;;;;;5.93;62.76;97829.31;5051785;28;20167;-68
2024/01/27 01:08:08;;;;;;;11.23;3.27;;;;;;;5.80;63.40;97840.63;5047135;28;20174;-67
2024/01/27 01:10:33;;;;;;;9.70;3.20;;;;;;;5.84;63.16;97845.81;5046079;28;20634;-66
2024/01/27 01:12:59;;;;;;;15.43;4.50;;;;;;;5.76;63.35;97844.09;5045764;28;20199;-67
2024/01/27 01:15:24;;;;;;;5.60;3.53;;;;;;;5.53;64.17;97847.59;5045596;28;20171;-67
2024/01/27 01:17:50;;;;;;;5.83;3.37;;;;;;;5.61;64.19;97844.97;5045912;28;20229;-67
2024/01/27 01:20:15;;;;;;;8.90;3.70;;;;;;;5.76;63.42;97838.88;5045597;28;20206;-67
2024/01/27 01:22:40;;;;;;;5.73;3.70;;;;;;;5.70;63.54;97837.16;5045516;28;20852;-68
2024/01/27 01:25:06;;;;;;;9.17;3.30;;;;;;;5.60;63.75;97833.69;5045575;28;20198;-67
2024/01/27 01:27:32;;;;;;;4.70;3.33;;;;;;;5.69;63.48;97831.09;5045150;28;20183;-66
2024/01/27 01:29:57;;;;;;;9.47;4.20;;;;;;;5.60;63.59;97833.69;5044850;28;20198;-67
2024/01/27 01:32:22;;;;;;;5.80;2.90;;;;;;;5.57;63.15;97840.63;5044912;28;20202;-67
2024/01/27 01:34:48;;;;;;;5.93;2.90;;;;;;;5.56;63.86;97842.38;5045202;28;20195;-68
2024/01/27 01:37:13;;;;;;;4.00;2.93;;;;;;;5.56;63.54;97844.13;5045239;28;20194;-68
2024/01/27 01:39:39;;;;;;;9.33;4.33;;;;;;;5.30;64.20;97848.44;5046311;28;20262;-66
2024/01/27 01:42:04;;;;;;;8.53;4.47;;;;;;;5.37;64.16;97851.94;5048715;28;20199;-67
2024/01/27 01:44:31;;;;;;;10.73;4.40;;;;;;;5.33;64.02;97854.53;5048804;28;20565;-66
2024/01/27 01:46:57;;;;;;;10.70;4.97;;;;;;;5.42;64.16;97859.75;5044198;28;20198;-67
2024/01/27 01:49:23;;;;;;;8.07;4.47;;;;;;;5.47;63.58;97858.88;5028829;28;20894;-67
2024/01/27 01:51:49;;;;;;;10.07;4.83;;;;;;;5.59;63.45;97863.19;5028755;28;20433;-66
2024/01/27 01:54:15;;;;;;;7.17;3.43;;;;;;;5.75;62.50;97856.25;5028873;28;20172;-67
2024/01/27 01:56:42;;;;;;;11.63;4.30;;;;;;;5.69;62.43;97864.94;5028734;28;20174;-67
2024/01/27 01:59:08;;;;;;;9.77;4.20;;;;;;;5.63;62.39;97857.13;5028160;28;20417;-66
2024/01/27 02:01:33;;;;;;;8.90;3.80;;;;;;;5.58;62.82;97869.28;5029406;28;20453;-68
2024/01/27 02:03:59;;;;;;;3.00;2.70;;;;;;;5.50;62.95;97858.88;5039484;28;20189;-69
2024/01/27 02:06:24;;;;;;;4.03;2.63;;;;;;;5.02;64.10;97870.97;5048530;28;20846;-67
2024/01/27 02:08:50;;;;;;;4.23;2.40;;;;;;;4.87;64.65;97870.97;5047978;28;20288;-67
2024/01/27 02:11:16;;;;;;;3.70;2.87;;;;;;;4.87;64.86;97868.38;5047976;28;20891;-67
2024/01/27 02:13:42;;;;;;;3.37;2.60;;;;;;;4.90;64.77;97872.69;5047963;28;20410;-67
2024/01/27 02:16:08;;;;;;;4.93;2.93;;;;;;;5.06;64.34;97877.94;5048241;28;20179;-68
2024/01/27 02:18:33;;;;;;;5.13;2.83;;;;;;;5.17;63.86;97874.47;5047846;28;20183;-67
2024/01/27 02:20:59;;;;;;;6.60;2.77;;;;;;;4.65;65.31;97878.72;5047923;28;20170;-66
2024/01/27 02:23:24;;;;;;;6.60;2.87;;;;;;;4.66;65.59;97890.84;5047289;28;20202;-67
2024/01/27 02:25:50;;;;;;;6.97;3.00;;;;;;;4.37;66.49;97893.34;5048414;28;20167;-68
2024/01/27 02:28:16;;;;;;;9.93;3.77;;;;;;;4.51;65.62;97898.56;5048397;28;20760;-67
2024/01/27 02:30:41;;;;;;;4.90;3.40;;;;;;;4.76;65.48;97909.06;5047897;28;20444;-67
2024/01/27 02:33:07;;;;;;;5.57;2.80;;;;;;;4.82;65.48;97911.72;5047886;28;20296;-67
2024/01/27 02:35:32;;;;;;;5.90;3.30;;;;;;;4.67;65.94;97915.97;5047449;28;20182;-67
2024/01/27 02:37:58;;;;;;;4.60;3.10;;;;;;;4.84;65.58;97915.16;5047120;28;20178;-67
2024/01/27 02:40:23;;;;;;;9.20;3.30;;;;;;;4.84;65.54;97926.44;5047569;28;20175;-67
2024/01/27 02:42:49;;;;;;;4.33;3.23;;;;;;;4.73;65.88;97919.47;5047278;28;20344;-66
2024/01/27 02:45:14;;;;;;;5.53;2.87;;;;;;;4.77;65.89;97924.69;5047789;28;20178;-67
2024/01/27 02:47:39;;;;;;;4.63;2.87;;;;;;;4.72;65.53;97928.97;5047345;28;20661;-67
2024/01/27 02:50:08;;;;;;;4.67;3.20;;;;;;;4.74;65.64;97919.47;5046922;28;20171;-68
2024/01/27 02:52:34;;;;;;;3.47;3.17;;;;;;;4.69;65.87;97933.31;5045760;28;20712;-67
2024/01/27 02:55:00;;;;;;;7.17;3.43;;;;;;;4.68;65.51;97932.47;5046826;28;20409;-67
2024/01/27 02:57:25;;;;;;;5.13;3.20;;;;;;;4.84;65.52;97942.06;5047092;28;20171;-67
2024/01/27 02:59:50;;;;;;;5.80;3.10;;;;;;;4.51;66.28;97945.34;5047065;28;20170;-68
2024/01/27 03:02:16;;;;;;;4.20;3.27;;;;;;;4.02;67.55;97951.16;5046999;28;20581;-66
2024/01/27 03:04:41;;;;;;;4.87;3.43;;;;;;;4.26;67.05;97948.72;5046972;28;20174;-67
2024/01/27 03:07:07;;;;;;;7.07;3.97;;;;;;;4.56;66.55;97958.38;5047048;28;20186;-68
2024/01/27 03:09:32;;;;;;;5.53;3.23;;;;;;;4.37;67.15;97958.31;5046678;28;20167;-67
2024/01/27 03:11:58;;;;;;;4.70;3.87;;;;;;;4.37;66.63;97954.81;5046881;28;20191;-66
2024/01/27 03:14:23;;;;;;;4.73;3.00;;;;;;;4.35;66.41;97960.03;5046891;28;20274;-67
2024/01/27 03:16:49;;;;;;;5.87;3.83;;;;;;;4.27;67.09;97955.63;5046857;28;20171;-67
2024/01/27 03:19:15;;;;;;;11.07;4.30;;;;;;;4.47;66.03;97964.41;5046451;28;20175;-67
2024/01/27 03:21:40;;;;;;;6.20;3.80;;;;;;;4.42;65.93;97961.78;5046385;28;20460;-67
2024/01/27 03:24:06;;;;;;;4.90;3.90;;;;;;;4.34;66.41;97963.47;5046453;28;20964;-67
2024/01/27 03:26:31;;;;;;;6.20;4.00;;;;;;;4.34;66.37;97960.88;5045547;28;20182;-67
2024/01/27 03:28:57;;;;;;;4.73;3.33;;;;;;;4.25;66.84;97958.22;5046700;28;20171;-68
2024/01/27 03:31:23;;;;;;;6.13;3.30;;;;;;;4.23;67.11;97962.56;5046425;28;20666;-67
2024/01/27 03:33:49;;;;;;;8.83;3.50;;;;;;;4.18;66.88;97962.53;5046353;28;20412;-67
2024/01/27 03:36:15;;;;;;;4.43;3.27;;;;;;;4.29;67.08;97962.56;5046766;28;20171;-67
2024/01/27 03:38:41;;;;;;;6.23;3.40;;;;;;;4.40;65.95;97962.66;5046204;28;20412;-68
2024/01/27 03:41:07;;;;;;;8.20;3.70;;;;;;;4.35;65.89;97960.03;5045978;28;20174;-66
2024/01/27 03:43:33;;;;;;;5.80;3.80;;;;;;;4.31;65.85;97963.44;5046239;28;20457;-68
2024/01/27 03:45:59;;;;;;;7.83;3.93;;;;;;;4.20;66.02;97954.72;5046326;28;20174;-67
2024/01/27 03:48:24;;;;;;;8.80;3.30;;;;;;;3.90;66.72;97966.66;5046098;28;20418;-67
2024/01/27 03:50:49;;;;;;;9.53;3.63;;;;;;;3.95;67.43;97959.75;5046257;28;20258;-67
2024/01/27 03:53:15;;;;;;;4.60;3.63;;;;;;;4.02;67.52;97961.53;5046407;28;20855;-67
2024/01/27 03:55:40;;;;;;;6.43;3.50;;;;;;;4.09;67.34;97961.59;5045714;28;20249;-67
2024/01/27 03:58:06;;;;;;;5.53;3.53;;;;;;;4.10;67.30;97958.97;5045562;28;21123;-67
2024/01/27 04:00:32;;;;;;;5.87;3.10;;;;;;;4.21;66.99;97959.94;5045939;28;20170;-66
2024/01/27 04:02:59;;;;;;;5.80;3.30;;;;;;;4.25;66.68;97966.00;5045470;28;20248;-66
2024/01/27 04:05:24;;;;;;;14.90;3.90;;;;;;;4.32;66.57;97959.97;5046303;28;20417;-66
2024/01/27 04:07:51;;;;;;;4.83;3.47;;;;;;;4.36;66.66;97961.75;5047413;28;20406;-67
2024/01/27 04:10:18;;;;;;;4.60;3.30;;;;;;;3.60;67.20;97973.31;5048264;28;20282;-70
2024/01/27 04:12:44;;;;;;;14.17;5.50;;;;;;;3.66;67.30;97982.00;5046536;28;20446;-67
2024/01/27 04:15:10;;;;;;;3.83;3.43;;;;;;;3.50;68.22;97975.81;5046300;28;20421;-69
2024/01/27 04:17:37;;;;;;;3.53;3.23;;;;;;;3.54;68.35;97983.66;5045026;28;20194;-68
2024/01/27 04:20:02;;;;;;;4.93;3.50;;;;;;;3.71;67.46;97985.50;5044944;28;20496;-68
2024/01/27 04:22:28;;;;;;;5.10;3.30;;;;;;;3.79;67.57;97989.06;5044609;28;20461;-68
2024/01/27 04:24:54;;;;;;;7.03;3.87;;;;;;;3.71;67.84;97988.09;5044866;28;20175;-67
2024/01/27 04:27:19;;;;;;;11.23;3.40;;;;;;;3.84;67.69;97986.50;5044796;28;20177;-67
2024/01/27 04:29:44;;;;;;;5.53;3.90;;;;;;;3.81;67.44;97990.81;5044837;28;20182;-67
2024/01/27 04:32:10;;;;;;;4.20;3.57;;;;;;;3.99;67.14;97987.50;5044580;28;20503;-67
2024/01/27 04:34:35;;;;;;;5.03;3.77;;;;;;;3.91;67.64;97996.06;5044995;28;20183;-69
2024/01/27 04:37:01;;;;;;;8.00;4.33;;;;;;;3.90;67.43;97991.72;5044880;28;20273;-67
2024/01/27 04:39:26;;;;;;;7.53;3.70;;;;;;;4.09;67.21;97993.63;5045238;28;20175;-66
2024/01/27 04:41:51;;;;;;;5.37;3.80;;;;;;;4.05;66.97;97986.66;5045238;28;20198;-67
2024/01/27 04:44:20;;;;;;;8.43;3.70;;;;;;;3.98;67.16;97995.28;5045484;28;20185;-67
2024/01/27 04:46:45;;;;;;;5.27;3.70;;;;;;;3.86;67.28;97995.19;5045458;28;20223;-67
2024/01/27 04:49:11;;;;;;;4.77;3.80;;;;;;;3.93;67.25;97994.38;5049982;28;21007;-67
2024/01/27 04:51:36;;;;;;;13.63;4.37;;;;;;;3.79;67.58;97983.88;5044813;28;20191;-67
2024/01/27 04:54:02;;;;;;;5.90;3.70;;;;;;;3.70;68.53;97994.16;5045077;28;20232;-67
2024/01/27 04:56:27;;;;;;;7.00;4.67;;;;;;;3.74;68.01;97995.94;5045676;28;20631;-66
2024/01/27 04:58:52;;;;;;;5.70;3.63;;;;;;;3.89;68.04;97983.06;5045771;28;20179;-67
2024/01/27 05:01:18;;;;;;;6.43;3.67;;;;;;;3.93;67.46;97991.78;5046181;28;20743;-67
2024/01/27 05:03:44;;;;;;;12.13;4.13;;;;;;;3.87;67.89;97979.59;5045396;28;20219;-67
2024/01/27 05:06:10;;;;;;;7.30;4.17;;;;;;;3.79;68.12;97984.72;5045379;28;20175;-66
2024/01/27 05:08:36;;;;;;;8.90;4.67;;;;;;;3.94;67.04;97989.16;5046388;28;20887;-67
2024/01/27 05:11:01;;;;;;;5.57;4.27;;;;;;;3.81;67.72;97988.22;5046462;28;20598;-67
2024/01/27 05:13:26;;;;;;;7.83;4.20;;;;;;;3.95;67.05;97988.31;5044859;28;20202;-67
2024/01/27 05:15:52;;;;;;;4.47;3.57;;;;;;;4.02;67.29;97997.03;5046802;28;20683;-67
2024/01/27 05:18:17;;;;;;;8.00;4.27;;;;;;;4.11;66.87;97985.81;5048777;28;20224;-66
2024/01/27 05:20:43;;;;;;;9.53;4.27;;;;;;;3.89;67.12;97985.66;5049015;28;20171;-67
2024/01/27 05:23:08;;;;;;;6.13;4.30;;;;;;;3.70;67.98;97999.38;5049012;28;20851;-66
2024/01/27 05:25:33;;;;;;;5.83;4.37;;;;;;;3.53;67.93;97999.22;5047574;28;20934;-68
2024/01/27 05:27:59;;;;;;;10.30;6.50;;;;;;;3.45;68.24;98006.03;5049415;28;20209;-68
2024/01/27 05:30:24;;;;;;;7.27;4.33;;;;;;;3.48;68.55;97995.69;5048858;28;20171;-68
2024/01/27 05:32:49;;;;;;;9.67;4.50;;;;;;;3.34;68.92;98000.75;5044969;28;20198;-67
2024/01/27 05:35:15;;;;;;;10.03;5.17;;;;;;;3.55;68.33;98003.56;5036707;28;20191;-67
2024/01/27 05:37:40;;;;;;;9.23;5.27;;;;;;;3.57;68.14;98007.03;5048810;28;20201;-68
2024/01/27 05:40:07;;;;;;;9.33;4.50;;;;;;;3.72;67.98;97997.66;5042370;28;20739;-67
2024/01/27 05:42:32;;;;;;;6.53;4.33;;;;;;;3.80;67.37;98002.06;5056131;28;20206;-67
2024/01/27 05:44:58;;;;;;;4.73;4.30;;;;;;;3.75;67.23;98002.84;5040827;28;20417;-67
2024/01/27 05:47:23;;;;;;;11.40;5.07;;;;;;;3.82;67.18;98009.84;5047783;28;20187;-67
2024/01/27 05:49:48;;;;;;;6.63;4.03;;;;;;;3.69;67.21;98014.06;5039544;28;20544;-67
2024/01/27 05:52:14;;;;;;;5.60;3.90;;;;;;;3.58;67.50;98016.56;5028554;28;20199;-67
2024/01/27 05:54:41;;;;;;;11.63;4.60;;;;;;;3.56;67.76;98017.41;5027547;28;20302;-69
2024/01/27 05:57:07;;;;;;;5.53;4.50;;;;;;;3.59;67.18;98026.09;5047605;28;20847;-68
2024/01/27 05:59:32;;;;;;;10.13;4.47;;;;;;;3.49;67.03;98021.66;5048355;28;20414;-69
2024/01/27 06:01:57;;;;;;;7.90;4.00;;;;;;;3.24;68.19;98030.91;5048834;28;20217;-68
2024/01/27 06:04:23;;;;;;;6.27;4.40;;;;;;;3.31;67.49;98029.28;5048861;28;20180;-68
2024/01/27 06:06:48;;;;;;;6.53;4.30;;;;;;;3.16;68.46;98029.94;5048372;28;20175;-68
2024/01/27 06:09:14;;;;;;;8.60;4.80;;;;;;;3.37;67.65;98031.91;5048341;28;20264;-67
2024/01/27 06:11:39;;;;;;;6.23;4.57;;;;;;;3.60;67.22;98039.94;5048748;28;20280;-67
2024/01/27 06:14:05;;;;;;;8.17;5.50;;;;;;;3.56;67.11;98035.56;5053247;28;20228;-67
2024/01/27 06:16:30;;;;;;;10.83;5.50;;;;;;;3.41;67.11;98036.28;5059950;28;20201;-68
2024/01/27 06:18:56;;;;;;;13.00;4.73;;;;;;;3.33;67.36;98036.22;5060681;28;20232;-67
2024/01/27 06:21:21;;;;;;;9.10;4.37;;;;;;;3.36;67.58;98033.66;5056830;28;20183;-68
2024/01/27 06:23:47;;;;;;;12.80;5.37;;;;;;;3.38;67.23;98024.16;5049057;28;20194;-67
2024/01/27 06:26:14;;;;;;;9.50;5.93;;;;;;;3.42;67.15;98029.38;5048832;28;20206;-67
2024/01/27 06:28:40;;;;;;;14.00;5.50;;;;;;;3.46;67.30;98023.38;5048090;28;20253;-67
2024/01/27 06:31:05;;;;;;;9.20;6.30;;;;;;;3.47;67.52;98020.75;5048157;28;20409;-69
2024/01/27 06:33:31;;;;;;;12.90;5.50;;;;;;;3.53;67.65;98028.63;5047618;28;20474;-69
2024/01/27 06:35:57;;;;;;;7.97;4.87;;;;;;;3.38;67.91;98031.94;5047949;28;20201;-70
2024/01/27 06:38:23;;;;;;;10.90;5.63;;;;;;;3.46;67.73;98025.97;5047647;28;20793;-67
2024/01/27 06:40:48;;;;;;;5.97;4.47;;;;;;;3.41;67.57;98041.47;5047975;28;20174;-68
2024/01/27 06:43:14;;;;;;;7.57;5.70;;;;;;;3.34;67.96;98032.75;5047117;28;20298;-67
2024/01/27 06:45:39;;;;;;;8.07;5.30;;;;;;;3.26;68.12;98030.91;5043448;28;20176;-67
2024/01/27 06:48:06;;;;;;;8.30;5.60;;;;;;;3.13;68.46;98038.56;5028574;28;20199;-67
2024/01/27 06:50:32;;;;;;;8.63;5.93;;;;;;;2.99;68.95;98034.94;5027453;28;20180;-67
2024/01/27 06:52:57;;;;;;;9.20;6.23;;;;;;;3.00;69.15;98039.28;5027002;28;20433;-67
2024/01/27 06:55:23;;;;;;;9.63;6.43;;;;;;;3.12;68.23;98041.16;5026682;28;20172;-67
2024/01/27 06:57:48;;;;;;;8.50;6.00;;;;;;;3.00;68.39;98036.69;5027286;28;20286;-67
2024/01/27 07:00:14;;;;;;;7.00;5.77;;;;;;;3.03;68.61;98038.44;5027410;28;20167;-67
2024/01/27 07:02:43;;;;;;;14.10;5.90;;;;;;;3.11;68.18;98037.66;5027339;28;20246;-68
2024/01/27 07:05:09;;;;;;;13.30;6.83;;;;;;;3.41;67.73;98038.88;5046882;28;20182;-68
2024/01/27 07:07:34;;;;;;;10.50;5.90;;;;;;;3.94;66.05;98043.72;5047037;28;20424;-68
2024/01/27 07:10:00;;;;;;;11.53;5.97;;;;;;;4.41;63.89;98038.00;5046529;28;20553;-68
2024/01/27 07:12:25;;;;;;;8.93;5.73;;;;;;;4.68;62.93;98041.66;5046778;28;20243;-68
2024/01/27 07:14:52;;;;;;;6.80;5.50;;;;;;;4.60;62.54;98053.72;5047238;28;20923;-67
2024/01/27 07:17:17;;;;;;;8.63;6.30;;;;;;;4.51;62.90;98051.94;5047190;28;20174;-67
2024/01/27 07:19:43;;;;;;;6.87;5.23;;;;;;;5.06;61.45;98054.00;5046772;28;20730;-68
2024/01/27 07:22:08;;;;;;;7.70;5.10;;;;;;;6.09;58.52;98049.06;5046833;28;20796;-68
2024/01/27 07:24:33;;;;;;;8.90;5.30;;;;;;;6.67;55.91;98050.78;5046636;28;20183;-68
2024/01/27 07:27:03;;;;;;;13.30;4.80;;;;;;;7.21;54.34;98041.91;5046569;28;20171;-68
2024/01/27 07:29:29;;;;;;;15.03;5.60;;;;;;;7.71;52.75;98049.50;5046403;28;20237;-67
2024/01/27 07:31:55;;;;;;;10.83;5.40;;;;;;;8.12;52.09;98043.97;5046614;28;20429;-69
2024/01/27 07:34:20;;;;;;;8.50;5.77;;;;;;;8.23;51.45;98043.88;5049739;28;20183;-68
2024/01/27 07:36:47;;;;;;;10.20;5.77;;;;;;;8.25;50.74;98042.13;5046298;28;20685;-68
2024/01/27 07:39:13;;;;;;;13.33;5.60;;;;;;;8.68;49.64;98047.88;5046081;28;20222;-68
2024/01/27 07:41:39;;;;;;;8.37;5.53;;;;;;;8.87;48.51;98045.91;5046131;28;20528;-67
2024/01/27 07:44:13;;;;;;;10.60;5.50;;;;;;;9.31;47.78;98041.06;5046899;28;20202;-67
2024/01/27 07:46:39;;;;;;;9.50;5.30;;;;;;;9.67;46.63;98033.59;5034189;28;20624;-69
2024/01/27 07:49:06;;;;;;;8.13;6.17;;;;;;;10.13;45.28;98038.16;5026159;28;20505;-68
2024/01/27 07:51:31;;;;;;;8.10;5.73;;;;;;;10.52;44.41;98039.28;5025899;28;20500;-68
2024/01/27 07:53:57;;;;;;;13.07;7.47;;;;;;;10.17;44.51;98045.09;5025849;28;20887;-68
2024/01/27 07:56:22;;;;;;;8.03;4.97;;;;;;;10.48;43.79;98042.00;5026026;28;20229;-67
2024/01/27 07:58:48;;;;;;;5.83;5.20;;;;;;;10.85;43.79;98047.44;5025454;28;20187;-67
2024/01/27 08:01:17;;;;;;;8.30;6.10;;;;;;;11.05;42.84;98043.56;5025473;28;20301;-68
2024/01/27 08:03:42;;;;;;;11.53;6.87;;;;;;;11.27;42.45;98052.78;5032803;28;20203;-67
2024/01/27 08:06:17;;;;;;;13.37;6.30;;;;;;;11.59;41.43;98053.84;5045428;28;20871;-68
2024/01/27 08:08:47;;;;;;;14.30;7.57;;;;;;;12.02;40.88;98038.03;5045418;28;20174;-68
2024/01/27 08:11:17;;;;;;;23.53;8.00;;;;;;;12.56;39.58;98043.72;5045233;28;20764;-68
2024/01/27 08:13:42;;;;;;;24.47;9.10;;;;;;;13.48;38.00;98042.09;5045309;28;20420;-68
2024/01/27 08:16:09;;;;;;;9.17;6.60;;;;;;;14.34;36.13;98042.09;5035949;28;20433;-68
2024/01/27 08:18:36;;;;;;;10.23;5.83;;;;;;;13.01;37.91;98041.66;5037828;28;20186;-68
2024/01/27 08:21:03;;;;;;;8.20;5.87;;;;;;;12.44;39.10;98050.19;5044345;28;20417;-68
2024/01/27 08:23:28;;;;;;;6.60;5.63;;;;;;;12.80;38.71;98051.00;5043657;28;20476;-68
2024/01/27 08:25:53;;;;;;;7.73;6.47;;;;;;;13.34;37.80;98053.06;5044529;28;20417;-67
2024/01/27 08:28:19;;;;;;;7.03;5.70;;;;;;;13.23;37.64;98060.38;5045441;28;20800;-67
2024/01/27 08:30:44;;;;;;;9.40;5.53;;;;;;;14.13;36.33;98056.00;5045230;28;20248;-68
2024/01/27 08:33:10;;;;;;;7.73;6.27;;;;;;;14.17;36.15;98062.91;5044635;28;20199;-68
2024/01/27 08:35:35;;;;;;;16.17;7.23;;;;;;;14.36;35.70;98055.25;5045039;28;20178;-68
2024/01/27 08:38:00;;;;;;;13.83;6.53;;;;;;;14.42;35.42;98043.63;5045174;28;20606;-68
2024/01/27 08:40:26;;;;;;;31.93;9.73;;;;;;;14.82;34.44;98045.81;5045311;28;20166;-68
2024/01/27 08:42:51;;;;;;;28.97;7.83;;;;;;;14.78;34.59;98041.56;5044929;28;20913;-68
2024/01/27 08:45:17;;;;;;;16.67;7.37;;;;;;;15.21;34.06;98038.28;5044798;28;20185;-68
2024/01/27 08:47:42;;;;;;;22.97;6.83;;;;;;;15.38;33.95;98040.28;5044866;28;20228;-68
2024/01/27 08:50:08;;;;;;;11.00;6.90;;;;;;;15.80;33.18;98042.28;5047116;28;20202;-68
2024/01/27 08:52:33;;;;;;;20.40;7.07;;;;;;;16.20;32.48;98040.69;5048726;28;20564;-67
2024/01/27 08:54:59;;;;;;;11.03;7.33;;;;;;;16.02;33.17;98039.66;5049012;28;20425;-67
2024/01/27 08:57:24;;;;;;;22.20;7.97;;;;;;;16.16;32.60;98036.44;5049056;28;20183;-68
2024/01/27 08:59:50;;;;;;;13.90;7.43;;;;;;;16.36;32.37;98042.72;5048881;28;20183;-67
2024/01/27 09:02:15;;;;;;;11.93;5.77;;;;;;;17.51;42.72;98030.69;5048850;28;20283;-68
2024/01/27 09:04:40;;;;;;;9.27;6.47;;;;;;;19.92;35.49;98019.50;5049059;28;20270;-69
2024/01/27 09:07:06;;;;;;;9.43;5.60;;;;;;;21.13;33.78;98023.13;5049227;28;20171;-70
2024/01/27 09:09:31;;;;;;;7.97;5.37;;;;;;;21.32;30.22;98026.41;5048685;28;20247;-71
2024/01/27 09:11:56;;;;;;;7.83;5.33;;;;;;;21.29;28.19;98017.72;5048719;28;20209;-67
2024/01/27 09:14:22;;;;;;;10.40;6.10;;;;;;;19.01;28.08;98027.00;5048924;28;20218;-68
2024/01/27 09:16:48;;;;;;;17.80;6.80;;;;;;;18.21;29.25;98028.31;5048655;28;20179;-69
2024/01/27 09:19:13;;;;;;;11.07;6.40;;;;;;;17.82;29.71;98025.78;5047072;28;20175;-67
2024/01/27 09:21:38;;;;;;;10.63;5.77;;;;;;;17.90;29.78;98028.91;5048909;28;20214;-68
2024/01/27 09:24:04;;;;;;;10.83;6.03;;;;;;;17.78;29.64;98033.84;5044481;28;20183;-68
2024/01/27 09:26:29;;;;;;;6.93;5.60;;;;;;;16.61;31.17;98039.94;5040946;28;20540;-69
2024/01/27 09:28:55;;;;;;;7.27;5.63;;;;;;;15.70;33.43;98042.66;5044026;28;20175;-69
2024/01/27 09:31:22;;;;;;;16.73;6.00;;;;;;;16.23;32.47;98037.06;5044810;28;20208;-68
2024/01/27 09:33:52;;;;;;;7.20;4.77;;;;;;;16.15;32.53;98034.72;5048041;28;20205;-68
2024/01/27 09:36:18;;;;;;;9.07;5.10;;;;;;;16.73;32.03;98034.97;5048026;28;20607;-68
2024/01/27 09:38:43;;;;;;;7.10;5.40;;;;;;;13.44;37.48;98040.50;5048438;28;21086;-68
2024/01/27 09:41:12;;;;;;;7.07;5.03;;;;;;;12.47;39.34;98042.19;5039784;28;20429;-66
2024/01/27 09:43:44;;;;;;;7.90;5.37;;;;;;;12.73;39.94;98044.16;5048794;28;20673;-66
2024/01/27 09:46:14;;;;;;;8.80;4.90;;;;;;;12.31;40.51;98049.63;5048988;28;20795;-68
2024/01/27 09:48:40;;;;;;;5.90;5.30;;;;;;;13.18;39.25;98046.47;5049009;28;21061;-67
2024/01/27 09:51:07;;;;;;;6.37;5.13;;;;;;;12.17;41.10;98049.09;5046197;28;20460;-67
2024/01/27 09:53:33;;;;;;;9.10;5.30;;;;;;;11.44;42.89;98053.28;5048132;28;20286;-68
2024/01/27 09:56:01;;;;;;;7.53;5.43;;;;;;;13.02;40.54;98039.91;5048016;28;20504;-67
2024/01/27 09:58:28;;;;;;;13.43;6.00;;;;;;;13.34;39.17;98042.50;5046205;28;20254;-67
2024/01/27 10:00:57;;;;;;;9.90;6.17;;;;;;;12.79;39.71;98040.50;5044898;28;20411;-67
2024/01/27 10:03:28;;;;;;;11.60;6.83;;;;;;;12.52;41.01;98049.97;5044511;28;21037;-66
2024/01/27 10:05:56;;;;;;;9.60;6.50;;;;;;;11.08;43.17;98062.78;5043649;28;20437;-67
2024/01/27 10:08:22;;;;;;;6.87;5.00;;;;;;;11.77;43.67;98063.13;5041846;28;20426;-68
2024/01/27 10:10:56;;;;;;;7.33;5.47;;;;;;;11.81;43.27;98062.13;5039787;28;20422;-68
2024/01/27 10:13:27;;;;;;;8.63;5.27;;;;;;;11.52;44.47;98055.75;5034434;28;20457;-67
2024/01/27 10:16:04;;;;;;;12.60;5.57;;;;;;;12.26;42.36;98046.25;5037553;28;20602;-68
2024/01/27 10:18:30;;;;;;;12.10;7.20;;;;;;;12.40;40.87;98054.66;5047847;28;20404;-66
2024/01/27 10:20:56;;;;;;;14.53;6.53;;;;;;;12.44;41.08;98064.19;5047531;28;20455;-66
2024/01/27 10:23:21;;;;;;;10.43;4.80;;;;;;;12.64;40.73;98071.63;5044109;28;20496;-65
2024/01/27 10:25:47;;;;;;;22.23;6.50;;;;;;;12.88;41.22;98064.84;5040433;28;20260;-67
2024/01/27 10:28:12;;;;;;;23.67;6.53;;;;;;;13.46;40.23;98061.53;5042268;28;20266;-67
2024/01/27 10:30:38;;;;;;;16.87;5.87;;;;;;;13.58;39.34;98057.66;5043450;28;20175;-67
2024/01/27 10:33:03;;;;;;;82.90;15.70;;;;;;;13.54;39.66;98057.78;5045931;28;20202;-65
2024/01/27 10:35:29;;;;;;;236.13;35.37;;;;;;;13.78;38.89;98055.31;5047128;28;20643;-68
2024/01/27 10:37:56;;;;;;;91.23;15.10;;;;;;;13.37;39.20;98056.50;5046155;28;20202;-68
2024/01/27 10:40:24;;;;;;;31.60;8.13;;;;;;;12.21;40.76;98066.53;5047056;28;20417;-68
2024/01/27 10:42:57;;;;;;;33.23;8.00;;;;;;;12.16;41.57;98065.78;5044172;28;20466;-68
2024/01/27 10:45:23;;;;;;;21.13;6.60;;;;;;;12.14;42.22;98060.56;5047320;28;20417;-68
2024/01/27 10:47:50;;;;;;;27.67;8.77;;;;;;;12.17;42.66;98051.72;5047038;28;20417;-69
2024/01/27 10:50:15;;;;;;;14.17;6.30;;;;;;;12.41;41.69;98056.38;5038061;28;20471;-69
2024/01/27 10:52:43;;;;;;;10.97;6.50;;;;;;;13.17;40.15;98055.28;5045987;28;20493;-69
2024/01/27 10:55:10;;;;;;;16.87;4.90;;;;;;;12.98;40.50;98049.66;5035029;28;20180;-69
2024/01/27 10:57:37;;;;;;;14.83;7.23;;;;;;;13.48;39.67;98050.03;5042085;28;20505;-65
2024/01/27 11:00:06;;;;;;;17.40;6.33;;;;;;;13.48;39.04;98046.53;5046356;28;20429;-68
2024/01/27 11:02:34;;;;;;;14.97;5.33;;;;;;;13.91;38.13;98048.75;5040549;28;20466;-68
2024/01/27 11:05:04;;;;;;;29.47;8.03;;;;;;;13.88;38.15;98043.56;5038514;28;20420;-67
2024/01/27 11:07:33;;;;;;;23.50;7.30;;;;;;;13.87;38.46;98035.72;5042400;28;20496;-67
2024/01/27 11:09:58;;;;;;;29.27;7.90;;;;;;;13.99;37.65;98032.69;5036167;28;20416;-67
2024/01/27 11:12:25;;;;;;;82.90;13.23;;;;;;;13.98;38.07;98026.53;5038791;28;20943;-68
2024/01/27 11:14:52;;;;;;;28.50;8.47;;;;;;;13.26;38.32;98043.63;5026529;28;20190;-68
2024/01/27 11:17:17;;;;;;;11.90;5.17;;;;;;;13.34;38.24;98041.66;5026862;28;20465;-67
2024/01/27 11:19:45;;;;;;;16.17;6.80;;;;;;;13.21;38.82;98049.03;5043025;28;20426;-67
2024/01/27 11:22:26;;;;;;;11.10;5.50;;;;;;;12.10;40.28;98045.75;5039253;28;20211;-68
2024/01/27 11:24:52;;;;;;;25.10;7.63;;;;;;;12.05;41.23;98042.34;5046990;28;20490;-67
2024/01/27 11:27:17;;;;;;;17.60;6.77;;;;;;;11.16;42.02;98050.34;5039078;28;20897;-68
2024/01/27 11:29:49;;;;;;;19.13;6.80;;;;;;;11.37;41.56;98051.69;5054263;28;20449;-69